createdAt,value
2023-03-06T00:01:00.709Z,84.27
2023-03-06T00:03:28.774Z,84.16
2023-03-06T00:06:00.438Z,84.24
2023-03-06T00:08:29.401Z,84.49
2023-03-06T00:10:57.955Z,84.91
2023-03-06T00:13:30.087Z,84.49
2023-03-06T00:16:03.070Z,84.48
2023-03-06T00:18:30.937Z,84.34
2023-03-06T00:20:59.178Z,84.68
2023-03-06T00:23:27.606Z,84.59
2023-03-06T00:25:55.634Z,84.37
2023-03-06T00:28:23.703Z,84.63
2023-03-06T00:30:51.669Z,84.68
2023-03-06T00:33:19.654Z,84.69
2023-03-06T00:35:47.582Z,84.45
2023-03-06T00:38:15.865Z,85.05
2023-03-06T00:40:43.992Z,85.26
2023-03-06T00:43:12.636Z,85.56
2023-03-06T00:45:40.617Z,85.24
2023-03-06T00:48:10.828Z,85.28
2023-03-06T00:50:38.814Z,85.60
2023-03-06T00:53:06.838Z,85.23
2023-03-06T00:55:34.783Z,85.59
2023-03-06T00:58:02.705Z,85.36
2023-03-06T01:00:30.640Z,85.55
2023-03-06T01:02:58.644Z,85.40
2023-03-06T01:05:26.719Z,85.29
2023-03-06T01:07:54.783Z,85.12
2023-03-06T01:10:23.195Z,85.41
2023-03-06T01:12:51.165Z,85.48
2023-03-06T01:15:20.382Z,85.03
2023-03-06T01:17:53.004Z,85.22
2023-03-06T01:20:21.765Z,85.41
2023-03-06T01:22:49.691Z,85.44
2023-03-06T01:25:17.747Z,85.41
2023-03-06T01:27:45.611Z,85.52
2023-03-06T01:30:13.782Z,85.19
2023-03-06T01:32:41.891Z,85.00
2023-03-06T01:35:10.439Z,85.20
2023-03-06T01:37:41.041Z,84.93
2023-03-06T01:40:13.035Z,85.22
2023-03-06T01:42:42.561Z,85.20
2023-03-06T01:45:13.271Z,85.14
2023-03-06T01:47:41.304Z,84.89
2023-03-06T01:50:11.747Z,84.76
2023-03-06T01:53:00.838Z,84.48
2023-03-06T01:55:35.095Z,84.21
2023-03-06T01:58:15.997Z,84.42
2023-03-06T02:00:44.356Z,84.17
2023-03-06T02:03:26.472Z,84.18
2023-03-06T02:05:55.918Z,84.38
2023-03-06T02:08:26.398Z,84.35
2023-03-06T02:11:14.589Z,84.36
2023-03-06T02:13:44.923Z,84.58
2023-03-06T02:16:17.072Z,84.26
2023-03-06T02:18:47.218Z,84.26
2023-03-06T02:21:28.872Z,84.24
2023-03-06T02:24:44.935Z,84.63
2023-03-06T02:27:14.864Z,84.52
2023-03-06T02:29:43.965Z,84.78
2023-03-06T02:32:12.951Z,84.62
2023-03-06T02:34:40.846Z,84.44
2023-03-06T02:37:11.308Z,85.16
2023-03-06T02:39:48.865Z,84.94
2023-03-06T02:42:28.879Z,85.28
2023-03-06T02:45:01.012Z,84.93
2023-03-06T02:47:29.417Z,84.98
2023-03-06T02:49:57.285Z,84.94
2023-03-06T02:52:25.399Z,84.95
2023-03-06T02:54:53.316Z,84.73
2023-03-06T02:57:21.521Z,84.57
2023-03-06T02:59:49.992Z,84.86
2023-03-06T03:02:17.945Z,84.59
2023-03-06T03:04:45.938Z,84.76
2023-03-06T03:07:13.999Z,84.74
2023-03-06T03:09:42.163Z,84.60
2023-03-06T03:12:10.641Z,84.45
2023-03-06T03:14:39.810Z,84.42
2023-03-06T03:17:08.729Z,84.36
2023-03-06T03:19:36.639Z,84.51
2023-03-06T03:22:04.593Z,84.35
2023-03-06T03:24:33.011Z,84.46
2023-03-06T03:27:01.936Z,84.61
2023-03-06T03:29:30.273Z,84.44
2023-03-06T03:31:58.180Z,84.44
2023-03-06T03:34:26.685Z,84.62
2023-03-06T03:36:55.468Z,84.76
2023-03-06T03:39:23.557Z,84.41
2023-03-06T03:41:52.382Z,85.04
2023-03-06T03:44:21.178Z,85.05
2023-03-06T03:46:49.743Z,84.76
2023-03-06T03:49:20.934Z,84.83
2023-03-06T03:51:49.446Z,84.56
2023-03-06T03:54:18.385Z,84.83
2023-03-06T03:56:47.544Z,85.58
2023-03-06T03:59:20.893Z,85.22
2023-03-06T04:02:04.909Z,85.40
2023-03-06T04:04:36.139Z,85.56
2023-03-06T04:07:04.452Z,85.56
2023-03-06T04:09:32.616Z,85.61
2023-03-06T04:12:01.071Z,85.88
2023-03-06T04:14:30.454Z,85.62
2023-03-06T04:16:58.731Z,85.32
2023-03-06T04:19:27.203Z,85.95
2023-03-06T04:21:55.178Z,86.36
2023-03-06T04:24:23.267Z,86.60
2023-03-06T04:26:51.270Z,86.37
2023-03-06T04:29:19.267Z,86.03
2023-03-06T04:31:47.395Z,86.41
2023-03-06T04:34:15.850Z,86.41
2023-03-06T04:36:46.664Z,86.46
2023-03-06T04:39:15.117Z,86.17
2023-03-06T04:41:43.378Z,86.66
2023-03-06T04:44:11.773Z,86.47
2023-03-06T04:46:39.720Z,86.51
2023-03-06T04:49:07.704Z,87.15
2023-03-06T04:51:38.742Z,87.22
2023-03-06T04:54:06.629Z,87.01
2023-03-06T04:56:34.573Z,86.92
2023-03-06T04:59:04.239Z,87.04
2023-03-06T05:01:32.160Z,86.86
2023-03-06T05:04:00.154Z,86.92
2023-03-06T05:06:29.735Z,86.99
2023-03-06T05:08:57.762Z,86.59
2023-03-06T05:11:25.700Z,86.25
2023-03-06T05:13:53.560Z,86.30
2023-03-06T05:16:21.664Z,85.62
2023-03-06T05:18:50.758Z,85.90
2023-03-06T05:21:18.904Z,85.69
2023-03-06T05:23:50.204Z,85.56
2023-03-06T05:26:18.095Z,85.70
2023-03-06T05:28:46.046Z,85.37
2023-03-06T05:31:13.993Z,85.33
2023-03-06T05:33:42.074Z,84.69
2023-03-06T05:36:10.429Z,85.28
2023-03-06T05:38:38.317Z,86.33
2023-03-06T05:41:06.448Z,86.95
2023-03-06T05:43:34.435Z,86.66
2023-03-06T05:46:08.057Z,86.45
2023-03-06T05:48:37.612Z,84.92
2023-03-06T05:51:06.501Z,84.59
2023-03-06T05:53:34.643Z,84.80
2023-03-06T05:56:09.091Z,84.48
2023-03-06T05:58:37.621Z,83.46
2023-03-06T06:01:15.846Z,84.53
2023-03-06T06:03:44.592Z,85.87
2023-03-06T06:06:15.078Z,86.48
2023-03-06T06:08:43.363Z,87.07
2023-03-06T06:11:14.476Z,86.93
2023-03-06T06:13:42.413Z,87.21
2023-03-06T06:16:13.352Z,87.33
2023-03-06T06:18:41.641Z,87.44
2023-03-06T06:21:14.384Z,85.99
2023-03-06T06:23:42.742Z,84.73
2023-03-06T06:26:11.096Z,85.08
2023-03-06T06:28:39.062Z,85.51
2023-03-06T06:31:14.241Z,85.69
2023-03-06T06:33:43.166Z,85.86
2023-03-06T06:36:21.699Z,86.27
2023-03-06T06:38:50.068Z,86.80
2023-03-06T06:41:53.029Z,86.12
2023-03-06T06:44:08.938Z,86.47
2023-03-06T06:49:26.380Z,86.98
2023-03-06T06:51:54.250Z,86.36
2023-03-06T06:54:22.281Z,86.85
2023-03-06T06:56:50.720Z,86.92
2023-03-06T06:59:19.243Z,85.83
2023-03-06T07:01:47.218Z,85.69
2023-03-06T07:04:16.776Z,85.97
2023-03-06T07:06:45.354Z,86.26
2023-03-06T07:09:14.133Z,85.64
2023-03-06T07:11:42.218Z,84.98
2023-03-06T07:14:10.277Z,84.47
2023-03-06T07:16:38.208Z,85.28
2023-03-06T07:19:07.926Z,85.12
2023-03-06T07:21:35.848Z,85.50
2023-03-06T07:24:04.731Z,86.33
2023-03-06T07:26:34.672Z,86.02
2023-03-06T07:29:04.990Z,85.97
2023-03-06T07:31:33.019Z,84.60
2023-03-06T07:34:03.146Z,84.14
2023-03-06T07:36:34.671Z,83.83
2023-03-06T07:39:02.772Z,84.39
2023-03-06T07:41:30.795Z,86.04
2023-03-06T07:43:59.130Z,85.28
2023-03-06T07:46:34.293Z,84.25
2023-03-06T07:49:02.324Z,82.94
2023-03-06T07:51:30.353Z,82.87
2023-03-06T07:53:58.311Z,82.86
2023-03-06T07:56:26.633Z,83.46
2023-03-06T07:58:56.107Z,82.92
2023-03-06T08:01:27.950Z,81.95
2023-03-06T08:03:56.782Z,82.40
2023-03-06T08:06:27.134Z,83.03
2023-03-06T08:08:56.476Z,83.79
2023-03-06T08:11:28.546Z,83.70
2023-03-06T08:13:57.991Z,84.39
2023-03-06T08:16:29.681Z,84.42
2023-03-06T08:18:59.441Z,83.34
2023-03-06T08:21:28.810Z,81.78
2023-03-06T08:23:56.906Z,81.27
2023-03-06T08:26:28.737Z,80.72
2023-03-06T08:29:01.245Z,80.73
2023-03-06T08:31:33.337Z,81.28
2023-03-06T08:34:14.936Z,80.64
2023-03-06T08:36:43.569Z,79.02
2023-03-06T08:39:12.982Z,78.27
2023-03-06T08:41:42.169Z,79.78
2023-03-06T08:44:11.628Z,79.78
2023-03-06T08:46:40.665Z,79.45
2023-03-06T08:49:12.090Z,79.40
2023-03-06T08:51:40.112Z,79.62
2023-03-06T08:54:10.489Z,79.89
2023-03-06T08:56:38.656Z,79.62
2023-03-06T08:59:09.294Z,79.21
2023-03-06T09:01:38.674Z,78.78
2023-03-06T09:04:10.688Z,78.84
2023-03-06T09:06:42.727Z,78.20
2023-03-06T09:09:12.245Z,78.52
2023-03-06T09:11:40.194Z,79.03
2023-03-06T09:14:08.625Z,80.52
2023-03-06T09:16:36.687Z,81.01
2023-03-06T09:19:04.843Z,82.37
2023-03-06T09:21:33.107Z,84.12
2023-03-06T09:24:01.058Z,84.11
2023-03-06T09:26:43.367Z,84.35
2023-03-06T09:29:13.532Z,82.39
2023-03-06T09:31:41.609Z,83.42
2023-03-06T09:34:09.609Z,83.57
2023-03-06T09:36:54.925Z,85.06
2023-03-06T09:39:27.122Z,84.66
2023-03-06T09:41:58.460Z,83.04
2023-03-06T09:44:30.964Z,80.06
2023-03-06T09:47:56.507Z,80.91
2023-03-06T09:50:39.908Z,80.89
2023-03-06T09:53:44.245Z,81.97
2023-03-06T09:56:21.911Z,81.54
2023-03-06T09:58:55.918Z,79.20
2023-03-06T10:01:30.285Z,79.03
2023-03-06T10:04:19.582Z,79.97
2023-03-06T10:06:51.711Z,77.94
2023-03-06T10:09:34.841Z,75.48
2023-03-06T10:12:20.355Z,77.97
2023-03-06T10:15:15.879Z,75.99
2023-03-06T10:17:45.255Z,75.66
2023-03-06T10:20:22.347Z,72.75
2023-03-06T10:23:29.373Z,74.40
2023-03-06T10:26:01.631Z,73.36
2023-03-06T10:29:00.106Z,72.83
2023-03-06T10:31:29.641Z,72.72
2023-03-06T10:34:43.045Z,75.75
2023-03-06T10:37:22.581Z,75.72
2023-03-06T10:40:12.967Z,77.57
2023-03-06T10:42:41.058Z,77.24
2023-03-06T10:45:17.193Z,79.33
2023-03-06T10:47:46.099Z,81.35
2023-03-06T10:50:30.662Z,79.70
2023-03-06T10:53:06.190Z,78.15
2023-03-06T10:55:37.849Z,76.04
2023-03-06T10:58:28.529Z,76.83
2023-03-06T11:01:19.095Z,75.08
2023-03-06T11:03:47.936Z,77.30
2023-03-06T11:06:36.752Z,75.27
2023-03-06T11:09:25.752Z,73.94
2023-03-06T11:12:19.368Z,73.70
2023-03-06T11:14:47.409Z,72.86
2023-03-06T11:17:32.118Z,72.48
2023-03-06T11:20:52.558Z,74.78
2023-03-06T11:23:36.757Z,72.82
2023-03-06T11:26:17.543Z,73.28
2023-03-06T11:29:06.693Z,74.75
2023-03-06T11:31:48.024Z,74.66
2023-03-06T11:34:38.925Z,76.07
2023-03-06T11:37:33.542Z,74.89
2023-03-06T11:40:10.530Z,73.86
2023-03-06T11:43:02.944Z,75.19
2023-03-06T11:45:44.920Z,74.55
2023-03-06T11:48:16.566Z,75.80
2023-03-06T11:50:51.546Z,74.37
2023-03-06T11:53:38.508Z,74.78
2023-03-06T11:56:23.836Z,75.55
2023-03-06T11:59:11.014Z,76.51
2023-03-06T12:02:29.290Z,77.17
2023-03-06T12:05:36.182Z,75.50
2023-03-06T12:08:42.954Z,75.60
2023-03-06T12:11:37.344Z,75.34
2023-03-06T12:14:34.710Z,75.85
2023-03-06T12:17:15.608Z,75.63
2023-03-06T12:20:30.746Z,76.15
2023-03-06T12:23:18.306Z,75.58
2023-03-06T12:26:16.210Z,75.75
2023-03-06T12:29:28.012Z,75.14
2023-03-06T12:32:32.553Z,75.92
2023-03-06T12:35:27.507Z,75.31
2023-03-06T12:38:32.723Z,75.50
2023-03-06T12:41:33.481Z,74.37
2023-03-06T12:44:27.398Z,75.32
2023-03-06T12:47:03.029Z,75.24
2023-03-06T12:49:38.610Z,75.00
2023-03-06T12:52:09.820Z,75.60
2023-03-06T12:54:41.046Z,75.81
2023-03-06T12:57:09.825Z,75.71
2023-03-06T12:59:39.178Z,76.60
2023-03-06T13:02:40.687Z,76.45
2023-03-06T13:05:14.726Z,76.67
2023-03-06T13:08:23.678Z,75.81
2023-03-06T13:11:26.565Z,75.12
2023-03-06T13:13:56.424Z,75.13
2023-03-06T13:16:31.146Z,75.70
2023-03-06T13:19:12.596Z,75.97
2023-03-06T13:21:56.114Z,77.85
2023-03-06T13:24:31.476Z,77.05
2023-03-06T13:27:11.224Z,77.16
2023-03-06T13:29:39.131Z,77.48
2023-03-06T13:32:18.963Z,77.26
2023-03-06T13:34:50.138Z,76.94
2023-03-06T13:37:23.073Z,76.04
2023-03-06T13:40:00.304Z,75.76
2023-03-06T13:42:38.035Z,77.02
2023-03-06T13:45:07.980Z,77.07
2023-03-06T13:48:19.520Z,77.59
2023-03-06T13:50:47.924Z,76.87
2023-03-06T13:54:08.323Z,75.86
2023-03-06T13:57:11.721Z,75.37
2023-03-06T14:00:59.963Z,75.31
2023-03-06T14:03:51.580Z,75.19
2023-03-06T14:06:34.535Z,75.71
2023-03-06T14:09:16.430Z,74.61
2023-03-06T14:11:53.062Z,75.52
2023-03-06T14:14:34.686Z,75.35
2023-03-06T14:17:05.260Z,75.44
2023-03-06T14:19:38.472Z,74.09
2023-03-06T14:22:13.044Z,74.79
2023-03-06T14:24:53.404Z,74.37
2023-03-06T14:27:36.958Z,75.11
2023-03-06T14:30:07.685Z,74.28
2023-03-06T14:32:39.876Z,75.46
2023-03-06T14:35:29.988Z,75.46
2023-03-06T14:38:03.972Z,76.25
2023-03-06T14:40:37.038Z,77.45
2023-03-06T14:43:25.325Z,77.45
2023-03-06T14:46:06.495Z,77.73
2023-03-06T14:48:45.379Z,77.91
2023-03-06T14:51:24.661Z,76.36
2023-03-06T14:53:55.905Z,76.69
2023-03-06T14:56:27.291Z,75.89
2023-03-06T14:59:14.166Z,75.58
2023-03-06T15:01:52.390Z,75.34
2023-03-06T15:04:26.513Z,75.73
2023-03-06T15:06:58.824Z,75.87
2023-03-06T15:09:36.667Z,75.01
2023-03-06T15:12:30.316Z,74.37
2023-03-06T15:15:04.538Z,74.02
2023-03-06T15:17:43.515Z,74.43
2023-03-06T15:20:53.624Z,74.94
2023-03-06T15:23:36.680Z,75.40
2023-03-06T15:26:33.861Z,74.82
2023-03-06T15:29:13.500Z,74.99
2023-03-06T15:31:45.826Z,74.07
2023-03-06T15:34:23.577Z,74.11
2023-03-06T15:36:57.640Z,75.71
2023-03-06T15:39:40.549Z,74.42
2023-03-06T15:42:19.098Z,74.70
2023-03-06T15:44:54.492Z,76.03
2023-03-06T15:47:23.480Z,75.37
2023-03-06T15:49:57.587Z,74.81
2023-03-06T15:52:25.691Z,74.63
2023-03-06T15:54:53.712Z,74.70
2023-03-06T15:57:25.993Z,75.34
2023-03-06T15:59:56.274Z,75.85
2023-03-06T16:02:24.485Z,76.49
2023-03-06T16:04:53.490Z,77.00
2023-03-06T16:07:21.490Z,76.80
2023-03-06T16:09:49.541Z,75.73
2023-03-06T16:12:22.714Z,75.75
2023-03-06T16:14:50.670Z,75.96
2023-03-06T16:17:18.706Z,76.46
2023-03-06T16:19:46.680Z,76.59
2023-03-06T16:22:14.579Z,76.49
2023-03-06T16:24:43.178Z,76.36
2023-03-06T16:27:19.857Z,76.52
2023-03-06T16:29:53.154Z,76.67
2023-03-06T16:32:28.666Z,77.11
2023-03-06T16:34:56.860Z,77.16
2023-03-06T16:37:24.825Z,77.35
2023-03-06T16:39:53.942Z,77.83
2023-03-06T16:42:23.138Z,78.12
2023-03-06T16:44:51.335Z,78.55
2023-03-06T16:47:19.319Z,78.96
2023-03-06T16:49:47.250Z,79.29
2023-03-06T16:52:15.488Z,79.01
2023-03-06T16:54:44.691Z,79.39
2023-03-06T16:57:15.006Z,79.36
2023-03-06T16:59:42.901Z,79.40
2023-03-06T17:02:12.455Z,79.53
2023-03-06T17:04:40.470Z,79.74
2023-03-06T17:07:08.737Z,79.65
2023-03-06T17:09:36.836Z,80.19
2023-03-06T17:12:05.062Z,80.30
2023-03-06T17:14:34.049Z,80.23
2023-03-06T17:17:02.034Z,80.40
2023-03-06T17:19:30.762Z,80.73
2023-03-06T17:21:58.978Z,80.79
2023-03-06T17:24:27.436Z,81.25
2023-03-06T17:26:56.192Z,81.12
2023-03-06T17:29:25.090Z,81.20
2023-03-06T17:31:53.028Z,81.41
2023-03-06T17:34:23.046Z,81.27
2023-03-06T17:36:53.114Z,81.47
2023-03-06T17:39:21.037Z,81.57
2023-03-06T17:41:50.179Z,81.41
2023-03-06T17:44:19.727Z,81.76
2023-03-06T17:46:49.983Z,82.04
2023-03-06T17:49:21.040Z,82.33
2023-03-06T17:51:49.693Z,82.45
2023-03-06T17:54:19.809Z,82.67
2023-03-06T17:56:48.295Z,83.05
2023-03-06T17:59:16.677Z,83.04
2023-03-06T18:01:46.048Z,83.06
2023-03-06T18:04:14.355Z,83.28
2023-03-06T18:06:42.375Z,83.47
2023-03-06T18:09:10.449Z,83.35
2023-03-06T18:11:38.650Z,83.40
2023-03-06T18:14:07.011Z,83.14
2023-03-06T18:16:35.648Z,83.32
2023-03-06T18:19:03.897Z,83.20
2023-03-06T18:21:32.000Z,83.37
2023-03-06T18:24:00.220Z,83.20
2023-03-06T18:26:29.954Z,83.54
2023-03-06T18:29:03.533Z,83.43
2023-03-06T18:31:39.303Z,83.51
2023-03-06T18:34:14.647Z,83.46
2023-03-06T18:36:44.250Z,83.94
2023-03-06T18:39:14.185Z,83.69
2023-03-06T18:41:42.380Z,83.69
2023-03-06T18:44:17.482Z,83.74
2023-03-06T18:46:45.598Z,83.97
2023-03-06T18:49:16.434Z,83.70
2023-03-06T18:51:44.909Z,83.69
2023-03-06T18:54:12.904Z,83.79
2023-03-06T18:56:44.616Z,83.69
2023-03-06T18:59:19.413Z,83.81
2023-03-06T19:01:48.198Z,83.86
2023-03-06T19:04:16.627Z,84.05
2023-03-06T19:06:44.970Z,84.07
2023-03-06T19:09:13.320Z,84.25
2023-03-06T19:11:42.657Z,84.51
2023-03-06T19:14:11.003Z,84.79
2023-03-06T19:16:39.075Z,84.63
2023-03-06T19:19:07.399Z,84.43
2023-03-06T19:21:35.341Z,84.42
2023-03-06T19:24:04.251Z,84.99
2023-03-06T19:26:32.688Z,85.41
2023-03-06T19:29:01.336Z,85.42
2023-03-06T19:31:29.611Z,84.76
2023-03-06T19:33:57.738Z,84.99
2023-03-06T19:36:33.490Z,85.18
2023-03-06T19:39:06.063Z,85.14
2023-03-06T19:41:34.695Z,85.49
2023-03-06T19:44:03.393Z,85.61
2023-03-06T19:46:32.354Z,85.60
2023-03-06T19:49:03.050Z,85.67
2023-03-06T19:51:32.992Z,86.18
2023-03-06T19:54:03.944Z,86.02
2023-03-06T19:56:33.666Z,86.29
2023-03-06T19:59:01.632Z,86.31
2023-03-06T20:01:29.734Z,86.29
2023-03-06T20:03:59.657Z,86.34
2023-03-06T20:06:33.707Z,86.82
2023-03-06T20:09:10.015Z,86.65
2023-03-06T20:11:40.167Z,86.74
2023-03-06T20:14:09.126Z,87.06
2023-03-06T20:16:39.600Z,86.77
2023-03-06T20:19:08.558Z,87.04
2023-03-06T20:21:37.695Z,86.93
2023-03-06T20:24:08.396Z,86.98
2023-03-06T20:26:38.000Z,86.73
2023-03-06T20:29:05.980Z,87.17
2023-03-06T20:31:34.080Z,87.06
2023-03-06T20:34:03.754Z,87.32
2023-03-06T20:36:40.094Z,87.16
2023-03-06T20:39:12.871Z,87.29
2023-03-06T20:41:41.203Z,87.34
2023-03-06T20:44:14.158Z,87.56
2023-03-06T20:46:42.274Z,88.05
2023-03-06T20:49:14.163Z,87.90
2023-03-06T20:51:42.359Z,87.66
2023-03-06T20:54:14.211Z,88.04
2023-03-06T20:56:48.982Z,87.87
2023-03-06T20:59:17.473Z,88.00
2023-03-06T21:01:47.859Z,88.42
2023-03-06T21:04:16.467Z,88.58
2023-03-06T21:06:47.040Z,88.38
2023-03-06T21:09:16.917Z,88.48
2023-03-06T21:11:46.104Z,88.58
2023-03-06T21:14:15.096Z,88.66
2023-03-06T21:16:43.377Z,88.37
2023-03-06T21:19:11.413Z,88.87
2023-03-06T21:21:39.483Z,88.98
2023-03-06T21:24:08.060Z,89.18
2023-03-06T21:26:36.280Z,88.92
2023-03-06T21:29:04.991Z,89.09
2023-03-06T21:31:34.129Z,89.05
2023-03-06T21:34:04.859Z,89.30
2023-03-06T21:36:33.878Z,89.29
2023-03-06T21:39:04.197Z,89.29
2023-03-06T21:41:33.168Z,89.21
2023-03-06T21:44:07.609Z,89.10
2023-03-06T21:46:36.142Z,89.21
2023-03-06T21:49:05.305Z,89.11
2023-03-06T21:51:34.509Z,89.25
2023-03-06T21:54:03.874Z,89.21
2023-03-06T21:56:33.304Z,88.94
2023-03-06T21:59:01.411Z,89.38
2023-03-06T22:01:30.196Z,89.69
2023-03-06T22:03:59.754Z,89.50
2023-03-06T22:06:32.160Z,89.61
2023-03-06T22:09:01.513Z,89.46
2023-03-06T22:11:37.232Z,89.59
2023-03-06T22:14:08.186Z,89.46
2023-03-06T22:16:36.181Z,89.47
2023-03-06T22:19:04.226Z,89.42
2023-03-06T22:21:32.198Z,89.32
2023-03-06T22:24:00.236Z,89.12
2023-03-06T22:26:29.501Z,89.12
2023-03-06T22:28:57.504Z,89.12
2023-03-06T22:31:28.576Z,88.90
2023-03-06T22:34:00.434Z,89.13
2023-03-06T22:36:30.758Z,90.08
2023-03-06T22:39:01.809Z,89.50
2023-03-06T22:41:31.042Z,89.65
2023-03-06T22:44:01.898Z,89.50
2023-03-06T22:46:30.899Z,89.41
2023-03-06T22:49:00.885Z,89.64
2023-03-06T22:51:29.691Z,89.84
2023-03-06T22:53:58.120Z,90.30
2023-03-06T22:56:26.222Z,90.36
2023-03-06T22:58:54.755Z,90.36
2023-03-06T23:01:26.223Z,90.77
2023-03-06T23:03:59.195Z,90.50
2023-03-06T23:06:31.277Z,90.60
2023-03-06T23:09:12.318Z,90.20
2023-03-06T23:11:59.067Z,90.68
2023-03-06T23:14:50.940Z,90.40
2023-03-06T23:17:37.676Z,90.13
2023-03-06T23:20:24.371Z,90.27
2023-03-06T23:23:11.287Z,90.17
2023-03-06T23:25:43.609Z,90.05
2023-03-06T23:28:11.996Z,89.81
2023-03-06T23:30:41.071Z,90.32
2023-03-06T23:33:09.716Z,90.50
2023-03-06T23:35:39.024Z,90.64
2023-03-06T23:38:07.246Z,90.47
2023-03-06T23:40:35.655Z,90.81
2023-03-06T23:43:04.244Z,91.56
2023-03-06T23:45:32.689Z,90.79
2023-03-06T23:48:00.719Z,90.84
2023-03-06T23:50:28.608Z,90.43
2023-03-06T23:52:56.548Z,90.32
2023-03-06T23:55:26.179Z,90.42
2023-03-06T23:57:54.306Z,90.55
